Time;durP1;ratioP1;P1;durP2;ratioP2;P2;SDS_P1;SDS_P2;PMS_P1;PMS_P2;Temp;Humidity;BMP_temperature;BMP_pressure;BME280_temperature;BME280_humidity;BME280_pressure;Samples;Min_cycle;Max_cycle;Signal;HPM_P1;HPM_P2
2023/05/11 00:00:16;;;;;;;14.38;10.57;;;14.20;99.90;;;;;;4998989;28;20057;-72
2023/05/11 00:02:42;;;;;;;14.57;10.70;;;14.20;99.90;;;;;;5009370;28;20363;-72
2023/05/11 00:05:08;;;;;;;15.32;10.23;;;14.20;99.90;;;;;;5025756;28;20049;-72
2023/05/11 00:07:33;;;;;;;13.38;10.38;;;14.10;99.90;;;;;;4998314;28;20053;-72
2023/05/11 00:09:59;;;;;;;14.70;10.40;;;14.10;99.90;;;;;;4989021;28;20524;-72
2023/05/11 00:12:25;;;;;;;12.80;10.60;;;14.10;99.90;;;;;;4995483;28;20049;-71
2023/05/11 00:14:51;;;;;;;12.63;9.57;;;14.10;99.90;;;;;;4981606;28;20904;-72
2023/05/11 00:17:18;;;;;;;13.80;11.10;;;14.10;99.90;;;;;;4990060;28;20071;-72
2023/05/11 00:19:44;;;;;;;14.70;10.65;;;14.10;99.90;;;;;;5000653;28;20849;-72
2023/05/11 00:22:10;;;;;;;14.68;10.85;;;14.00;99.90;;;;;;5002780;28;20136;-72
2023/05/11 00:24:35;;;;;;;11.43;9.38;;;14.00;99.90;;;;;;4995985;28;20054;-72
2023/05/11 00:27:01;;;;;;;13.52;10.73;;;14.10;99.90;;;;;;4997735;28;20572;-72
2023/05/11 00:29:27;;;;;;;14.18;10.48;;;14.10;99.90;;;;;;4997875;28;20374;-72
2023/05/11 00:31:52;;;;;;;16.05;11.23;;;14.00;99.90;;;;;;4987757;28;20053;-72
2023/05/11 00:34:18;;;;;;;14.10;10.20;;;14.00;99.90;;;;;;4994394;28;20058;-72
2023/05/11 00:36:44;;;;;;;15.80;10.30;;;14.00;99.90;;;;;;5007123;28;20089;-72
2023/05/11 00:39:10;;;;;;;12.60;10.43;;;14.00;99.90;;;;;;4981299;28;20056;-72
2023/05/11 00:41:36;;;;;;;15.32;10.93;;;14.00;99.90;;;;;;4991116;28;20387;-72
2023/05/11 00:44:02;;;;;;;16.77;10.98;;;14.10;99.90;;;;;;5010260;28;20137;-72
2023/05/11 00:46:27;;;;;;;17.05;12.38;;;14.00;99.90;;;;;;4998035;28;20402;-72
2023/05/11 00:48:53;;;;;;;16.33;13.00;;;14.10;99.90;;;;;;4998385;28;20050;-72
2023/05/11 00:51:20;;;;;;;15.57;11.25;;;14.00;99.90;;;;;;4974455;28;20045;-72
2023/05/11 00:53:46;;;;;;;15.60;11.25;;;14.00;99.90;;;;;;4979521;28;20078;-72
2023/05/11 00:56:12;;;;;;;15.98;12.15;;;14.00;99.90;;;;;;4990737;28;20056;-72
2023/05/11 00:58:38;;;;;;;15.98;12.20;;;14.00;99.90;;;;;;4987139;28;20155;-72
2023/05/11 01:01:04;;;;;;;15.30;12.25;;;14.00;99.90;;;;;;4989798;28;20049;-72
2023/05/11 01:03:31;;;;;;;16.08;11.63;;;14.00;99.90;;;;;;4969046;28;20077;-72
2023/05/11 01:06:08;;;;;;;15.32;11.80;;;14.00;99.90;;;;;;4998249;28;20077;-72
2023/05/11 01:08:41;;;;;;;17.60;12.30;;;14.00;99.90;;;;;;5008165;28;20053;-72
2023/05/11 01:11:27;;;;;;;14.45;11.38;;;14.00;99.90;;;;;;4972835;28;20045;-72
2023/05/11 01:13:56;;;;;;;17.40;12.18;;;14.00;99.90;;;;;;5002485;28;20491;-71
2023/05/11 01:16:23;;;;;;;15.27;11.98;;;14.00;99.90;;;;;;4991382;28;20503;-72
2023/05/11 01:18:55;;;;;;;21.83;13.35;;;14.00;99.90;;;;;;4978391;28;20078;-72
2023/05/11 01:21:20;;;;;;;17.23;11.98;;;14.00;99.90;;;;;;4992749;28;20112;-72
2023/05/11 01:24:01;;;;;;;16.52;12.68;;;14.00;99.90;;;;;;4981024;28;20049;-72
2023/05/11 01:26:57;;;;;;;17.10;12.73;;;14.00;99.90;;;;;;5013919;28;20056;-72
2023/05/11 01:29:25;;;;;;;17.05;11.77;;;14.00;99.90;;;;;;4973769;28;20045;-72
2023/05/11 01:31:52;;;;;;;;;;;14.00;99.90;;;;;;4997246;28;20656;-72
2023/05/11 01:34:21;;;;;;;15.63;11.23;;;14.00;99.90;;;;;;5007228;28;20286;-72
2023/05/11 01:36:52;;;;;;;13.95;10.65;;;14.00;99.90;;;;;;4997932;28;20520;-72
2023/05/11 01:39:21;;;;;;;16.20;10.82;;;14.00;99.90;;;;;;4979218;28;20522;-72
2023/05/11 01:41:50;;;;;;;15.35;10.90;;;14.00;99.90;;;;;;4987837;28;20054;-72
2023/05/11 01:44:16;;;;;;;15.40;10.82;;;14.00;99.90;;;;;;4980269;28;20042;-72
2023/05/11 01:46:42;;;;;;;19.98;10.88;;;14.00;99.90;;;;;;4993019;28;20061;-72
2023/05/11 01:49:08;;;;;;;19.33;11.57;;;14.00;99.90;;;;;;4981475;28;20050;-72
2023/05/11 01:51:36;;;;;;;16.65;12.05;;;14.00;99.90;;;;;;4970081;28;20049;-72
2023/05/11 01:54:02;;;;;;;20.77;11.70;;;14.00;99.90;;;;;;4990147;28;20052;-72
2023/05/11 01:56:28;;;;;;;23.75;11.73;;;14.00;99.90;;;;;;4985178;28;20057;-72
2023/05/11 01:58:54;;;;;;;16.65;12.60;;;14.00;99.90;;;;;;5012163;28;20045;-72
2023/05/11 02:01:20;;;;;;;17.25;12.68;;;14.00;99.90;;;;;;4978023;28;20081;-72
2023/05/11 02:03:46;;;;;;;14.60;12.20;;;14.00;99.90;;;;;;4980496;28;20082;-72
2023/05/11 02:06:12;;;;;;;16.92;12.20;;;13.90;99.90;;;;;;4994426;28;20131;-72
2023/05/11 02:08:38;;;;;;;16.67;11.45;;;13.90;99.90;;;;;;4977974;28;20049;-72
2023/05/11 02:11:04;;;;;;;14.27;10.88;;;13.90;99.90;;;;;;4990734;28;20042;-72
2023/05/11 02:13:29;;;;;;;18.92;13.55;;;13.90;99.90;;;;;;4996125;28;20049;-72
2023/05/11 02:15:55;;;;;;;18.00;12.35;;;13.90;99.90;;;;;;4987295;28;20034;-71
2023/05/11 02:18:22;;;;;;;17.10;13.07;;;13.90;99.90;;;;;;4990561;28;20143;-72
2023/05/11 02:20:47;;;;;;;15.85;12.55;;;13.90;99.90;;;;;;4994694;28;20546;-72
2023/05/11 02:23:13;;;;;;;18.52;13.43;;;13.90;99.90;;;;;;4996650;28;20129;-72
2023/05/11 02:25:39;;;;;;;16.42;12.43;;;13.90;99.90;;;;;;4990601;28;20104;-72
2023/05/11 02:28:05;;;;;;;17.13;11.32;;;13.90;99.90;;;;;;5004481;28;20144;-72
2023/05/11 02:30:31;;;;;;;17.88;12.18;;;13.90;99.90;;;;;;5000018;28;20060;-72
2023/05/11 02:33:01;;;;;;;16.63;12.13;;;14.00;99.90;;;;;;4974049;28;20037;-72
2023/05/11 02:35:30;;;;;;;16.45;12.77;;;14.00;99.90;;;;;;4977602;28;20046;-71
2023/05/11 02:37:59;;;;;;;15.75;12.25;;;14.00;99.90;;;;;;4974278;28;20350;-72
2023/05/11 02:40:28;;;;;;;17.60;13.52;;;13.90;99.90;;;;;;4965702;28;20061;-72
2023/05/11 02:42:58;;;;;;;17.10;12.35;;;14.00;99.90;;;;;;4983462;28;20462;-72
2023/05/11 02:45:24;;;;;;;16.65;12.05;;;14.00;99.90;;;;;;5041252;28;20054;-72
2023/05/11 02:47:52;;;;;;;18.65;12.82;;;14.00;99.90;;;;;;4988991;28;20052;-72
2023/05/11 02:50:17;;;;;;;15.25;11.80;;;13.90;99.90;;;;;;4991152;28;20868;-72
2023/05/11 02:52:44;;;;;;;15.73;11.35;;;14.00;99.90;;;;;;4965688;28;20121;-72
2023/05/11 02:55:10;;;;;;;14.68;11.30;;;14.00;99.90;;;;;;4998533;28;20049;-72
2023/05/11 02:57:37;;;;;;;16.85;12.35;;;14.00;99.90;;;;;;5009189;28;20046;-72
2023/05/11 03:00:03;;;;;;;15.68;11.38;;;14.00;99.90;;;;;;4995035;28;20042;-72
2023/05/11 03:02:28;;;;;;;16.05;11.68;;;14.00;99.90;;;;;;4997910;28;20133;-72
2023/05/11 03:04:54;;;;;;;14.63;11.73;;;14.00;99.90;;;;;;4976888;28;20130;-71
2023/05/11 03:07:20;;;;;;;15.00;11.43;;;14.00;99.90;;;;;;4994539;28;20449;-72
2023/05/11 03:09:46;;;;;;;16.63;11.73;;;14.00;99.90;;;;;;4979776;28;20144;-72
2023/05/11 03:12:12;;;;;;;15.50;11.75;;;14.00;99.90;;;;;;4982070;28;20046;-72
2023/05/11 03:14:38;;;;;;;16.40;12.43;;;14.00;99.90;;;;;;4992320;28;20046;-72
2023/05/11 03:17:03;;;;;;;17.65;12.50;;;14.00;99.90;;;;;;4995460;28;20112;-72
2023/05/11 03:19:29;;;;;;;16.85;12.30;;;14.00;99.90;;;;;;4979757;28;20046;-72
2023/05/11 03:21:56;;;;;;;14.98;11.70;;;14.00;99.90;;;;;;4988646;28;20053;-72
2023/05/11 03:24:21;;;;;;;17.27;12.32;;;14.00;99.90;;;;;;4964044;28;20054;-72
2023/05/11 03:26:47;;;;;;;14.32;11.07;;;14.00;99.90;;;;;;5004671;28;20120;-72
2023/05/11 03:29:13;;;;;;;15.80;11.60;;;14.00;99.90;;;;;;4948223;28;20038;-72
2023/05/11 03:31:39;;;;;;;14.75;11.52;;;14.00;99.90;;;;;;4983627;28;20038;-72
2023/05/11 03:34:04;;;;;;;15.52;11.15;;;14.00;99.90;;;;;;4994467;28;20045;-72
2023/05/11 03:36:31;;;;;;;16.33;11.57;;;14.00;99.90;;;;;;4989101;28;20084;-72
2023/05/11 03:38:56;;;;;;;15.77;10.98;;;14.00;99.90;;;;;;4989214;28;20050;-72
2023/05/11 03:41:22;;;;;;;15.13;11.93;;;14.00;99.90;;;;;;4988631;28;20108;-72
2023/05/11 03:43:49;;;;;;;14.63;11.90;;;14.00;99.90;;;;;;4989099;28;20050;-72
2023/05/11 03:46:15;;;;;;;14.60;11.20;;;14.00;99.90;;;;;;4999491;28;20054;-72
2023/05/11 03:48:41;;;;;;;15.98;11.52;;;14.00;99.90;;;;;;4982480;28;20053;-72
2023/05/11 03:51:07;;;;;;;17.02;11.43;;;14.00;99.90;;;;;;4965544;28;20046;-72
2023/05/11 03:53:33;;;;;;;16.38;11.75;;;14.00;99.90;;;;;;4959816;28;20124;-72
2023/05/11 03:55:58;;;;;;;15.10;11.85;;;14.00;99.90;;;;;;4990908;28;20050;-72
2023/05/11 03:58:24;;;;;;;17.13;11.65;;;14.00;99.90;;;;;;4987948;28;20474;-72
2023/05/11 04:00:50;;;;;;;17.27;12.98;;;14.00;99.90;;;;;;4976735;28;20108;-72
2023/05/11 04:03:15;;;;;;;14.15;11.77;;;14.00;99.90;;;;;;4973176;28;20034;-72
2023/05/11 04:05:41;;;;;;;15.10;11.57;;;14.00;99.90;;;;;;4977120;28;20080;-72
2023/05/11 04:08:07;;;;;;;14.15;10.82;;;14.00;99.90;;;;;;4972459;28;20340;-72
2023/05/11 04:10:32;;;;;;;16.92;12.25;;;14.00;99.90;;;;;;4980712;28;20056;-72
2023/05/11 04:12:58;;;;;;;15.18;11.57;;;14.00;99.90;;;;;;5010226;28;20360;-72
2023/05/11 04:15:24;;;;;;;17.02;12.35;;;14.00;99.90;;;;;;5004807;28;20049;-72
2023/05/11 04:17:50;;;;;;;16.90;12.80;;;14.00;99.90;;;;;;5002559;28;20049;-72
2023/05/11 04:20:15;;;;;;;16.58;11.65;;;14.10;99.90;;;;;;5004172;28;20455;-72
2023/05/11 04:22:42;;;;;;;15.30;12.02;;;14.00;99.90;;;;;;4990295;28;20054;-71
2023/05/11 04:25:08;;;;;;;15.00;11.15;;;14.10;99.90;;;;;;4984028;28;20165;-71
2023/05/11 04:27:33;;;;;;;15.30;11.18;;;14.10;99.90;;;;;;4992953;28;20642;-72
2023/05/11 04:30:00;;;;;;;14.63;10.75;;;14.10;99.90;;;;;;4993953;28;20049;-72
2023/05/11 04:32:27;;;;;;;15.10;11.23;;;14.10;99.90;;;;;;4978742;28;20498;-71
2023/05/11 04:34:52;;;;;;;18.80;11.95;;;14.10;99.90;;;;;;4962597;28;20062;-72
2023/05/11 04:37:18;;;;;;;18.10;12.95;;;14.10;99.90;;;;;;5008053;28;20052;-72
2023/05/11 04:39:44;;;;;;;21.02;14.80;;;14.10;99.90;;;;;;4980565;28;20108;-72
2023/05/11 04:42:10;;;;;;;24.60;15.65;;;14.10;99.90;;;;;;4992707;28;20045;-72
2023/05/11 04:44:38;;;;;;;35.92;22.30;;;14.10;99.90;;;;;;4999864;28;20046;-72
2023/05/11 04:47:03;;;;;;;31.63;20.92;;;14.10;99.90;;;;;;5005504;28;20696;-72
2023/05/11 04:49:29;;;;;;;32.80;21.08;;;14.10;99.90;;;;;;5036883;28;20037;-72
2023/05/11 04:51:55;;;;;;;36.65;22.63;;;14.10;99.90;;;;;;4992437;28;20070;-72
2023/05/11 04:54:21;;;;;;;36.38;23.00;;;14.10;99.90;;;;;;4989665;28;20133;-72
2023/05/11 04:56:46;;;;;;;37.25;22.77;;;14.10;99.90;;;;;;4963389;28;20105;-72
2023/05/11 04:59:12;;;;;;;39.63;24.42;;;14.10;99.90;;;;;;4990980;28;20046;-72
2023/05/11 05:01:38;;;;;;;33.45;21.42;;;14.10;99.90;;;;;;5010554;28;20046;-72
2023/05/11 05:04:04;;;;;;;35.90;22.05;;;14.10;99.90;;;;;;5000314;28;20058;-72
2023/05/11 05:06:31;;;;;;;32.08;19.63;;;14.20;99.90;;;;;;5004018;28;20054;-72
2023/05/11 05:08:57;;;;;;;31.52;19.98;;;14.10;99.90;;;;;;4965550;28;20387;-72
2023/05/11 05:11:23;;;;;;;31.05;19.83;;;14.20;99.90;;;;;;4985344;28;20057;-72
2023/05/11 05:13:48;;;;;;;31.33;19.60;;;14.10;99.90;;;;;;4981073;28;20046;-72
2023/05/11 05:16:14;;;;;;;29.63;19.85;;;14.20;99.90;;;;;;4988790;28;20049;-72
2023/05/11 05:18:40;;;;;;;28.95;19.75;;;14.20;99.90;;;;;;4998078;28;20060;-72
2023/05/11 05:21:06;;;;;;;26.33;18.45;;;14.20;99.90;;;;;;4975314;28;20044;-72
2023/05/11 05:23:32;;;;;;;30.45;19.30;;;14.20;99.90;;;;;;4985895;28;20073;-72
2023/05/11 05:25:57;;;;;;;26.27;17.33;;;14.20;99.90;;;;;;4997621;28;20038;-72
2023/05/11 05:28:23;;;;;;;26.90;17.90;;;14.20;99.90;;;;;;5004647;28;20048;-72
2023/05/11 05:30:49;;;;;;;28.63;18.05;;;14.20;99.90;;;;;;4992426;28;20042;-72
2023/05/11 05:33:14;;;;;;;27.40;18.20;;;14.20;99.90;;;;;;4995270;28;20129;-72
2023/05/11 05:35:42;;;;;;;30.80;19.10;;;14.20;99.90;;;;;;5000139;28;20053;-72
2023/05/11 05:38:08;;;;;;;28.73;18.73;;;14.20;99.90;;;;;;5004121;28;20099;-72
2023/05/11 05:40:36;;;;;;;25.50;18.23;;;14.20;99.90;;;;;;4994336;28;20049;-72
2023/05/11 05:43:02;;;;;;;28.13;19.60;;;14.20;99.90;;;;;;4977280;28;20137;-72
2023/05/11 05:45:28;;;;;;;29.67;19.83;;;14.20;99.90;;;;;;5007186;28;20045;-72
2023/05/11 05:47:53;;;;;;;24.25;17.80;;;14.20;99.90;;;;;;5013084;28;20108;-72
2023/05/11 05:50:19;;;;;;;27.27;19.50;;;14.20;99.90;;;;;;5001991;28;20061;-72
2023/05/11 05:52:45;;;;;;;31.60;21.98;;;14.20;99.90;;;;;;4974258;28;20057;-72
2023/05/11 05:55:11;;;;;;;30.15;20.85;;;14.20;99.90;;;;;;5006440;28;20056;-72
2023/05/11 05:57:36;;;;;;;31.00;21.92;;;14.20;99.90;;;;;;4974500;28;20046;-72
2023/05/11 06:00:02;;;;;;;31.77;22.60;;;14.20;99.90;;;;;;4995989;28;20164;-72
2023/05/11 06:02:28;;;;;;;33.50;23.65;;;14.30;99.90;;;;;;4997690;28;20050;-72
2023/05/11 06:04:54;;;;;;;29.92;21.77;;;14.30;99.90;;;;;;4997235;28;20046;-72
2023/05/11 06:07:20;;;;;;;29.30;21.48;;;14.30;99.90;;;;;;4953120;28;20046;-72
2023/05/11 06:09:45;;;;;;;34.95;23.60;;;14.30;99.90;;;;;;4972966;28;20033;-72
2023/05/11 06:12:11;;;;;;;30.40;21.90;;;14.30;99.90;;;;;;4989936;28;20601;-72
2023/05/11 06:14:37;;;;;;;32.83;23.10;;;14.40;99.90;;;;;;5003736;28;20371;-72
2023/05/11 06:17:03;;;;;;;33.60;22.85;;;14.30;99.90;;;;;;4972758;28;20050;-72
2023/05/11 06:19:28;;;;;;;29.85;21.40;;;14.30;99.90;;;;;;5002964;28;20047;-72
2023/05/11 06:21:54;;;;;;;29.65;21.98;;;14.40;99.90;;;;;;5008329;28;20046;-72
2023/05/11 06:24:20;;;;;;;28.50;20.88;;;14.40;99.90;;;;;;4999289;28;20061;-72
2023/05/11 06:26:45;;;;;;;30.52;22.08;;;14.40;99.90;;;;;;4996777;28;20076;-72
2023/05/11 06:29:11;;;;;;;30.75;22.13;;;14.40;99.90;;;;;;5004576;28;20054;-72
2023/05/11 06:31:37;;;;;;;29.27;21.80;;;14.40;99.90;;;;;;5005204;28;20104;-72
2023/05/11 06:34:03;;;;;;;29.77;20.60;;;14.40;99.90;;;;;;4998970;28;20447;-72
2023/05/11 06:36:31;;;;;;;28.15;21.92;;;14.40;99.90;;;;;;4988802;28;20060;-72
2023/05/11 06:38:56;;;;;;;26.75;19.45;;;14.40;99.90;;;;;;4992039;28;20049;-73
2023/05/11 06:41:22;;;;;;;28.85;20.02;;;14.40;99.90;;;;;;4974551;28;20073;-75
2023/05/11 06:43:48;;;;;;;29.33;20.45;;;14.40;99.90;;;;;;4977663;28;20049;-74
2023/05/11 06:46:16;;;;;;;26.77;20.08;;;14.40;99.90;;;;;;4969615;28;20046;-75
2023/05/11 06:48:42;;;;;;;31.85;21.73;;;14.50;99.90;;;;;;4988844;28;20058;-74
2023/05/11 06:51:11;;;;;;;27.08;19.20;;;14.50;99.90;;;;;;4998217;28;20531;-74
2023/05/11 06:53:37;;;;;;;28.23;21.02;;;14.50;99.90;;;;;;5002596;28;20478;-74
2023/05/11 06:56:03;;;;;;;28.55;19.35;;;14.60;99.90;;;;;;4959549;28;20049;-74
2023/05/11 06:58:30;;;;;;;25.60;17.85;;;14.60;99.90;;;;;;5002413;28;20048;-74
2023/05/11 07:00:59;;;;;;;28.50;20.15;;;14.60;99.90;;;;;;5006312;28;20066;-74
2023/05/11 07:03:25;;;;;;;27.15;19.10;;;14.70;99.90;;;;;;5003562;28;20041;-74
2023/05/11 07:05:51;;;;;;;28.25;18.95;;;14.70;99.90;;;;;;5007180;28;20053;-75
2023/05/11 07:08:17;;;;;;;22.42;16.75;;;14.70;99.90;;;;;;4993144;28;20053;-75
2023/05/11 07:10:42;;;;;;;23.20;17.60;;;14.70;99.90;;;;;;4983863;28;20038;-74
2023/05/11 07:13:08;;;;;;;22.60;17.95;;;14.80;99.90;;;;;;4997652;28;20042;-74
2023/05/11 07:15:34;;;;;;;24.98;19.48;;;14.90;99.90;;;;;;4984793;28;20042;-76
2023/05/11 07:18:00;;;;;;;23.50;17.98;;;14.90;99.90;;;;;;4991368;28;20053;-77
2023/05/11 07:20:26;;;;;;;25.00;18.10;;;14.90;99.90;;;;;;4994711;28;20043;-76
2023/05/11 07:23:04;;;;;;;25.90;18.35;;;14.90;99.90;;;;;;5002800;28;20053;-76
2023/05/11 07:25:30;;;;;;;21.73;17.15;;;14.90;99.90;;;;;;4982985;28;20370;-77
2023/05/11 07:33:47;;;;;;;22.13;18.58;;;15.00;99.90;;;;;;4970032;28;20043;-74
2023/05/11 07:36:13;;;;;;;25.75;18.52;;;15.00;99.90;;;;;;4985188;28;20132;-74
2023/05/11 07:38:39;;;;;;;23.23;18.10;;;15.00;99.90;;;;;;4959560;28;20458;-74
2023/05/11 07:41:06;;;;;;;18.95;15.43;;;14.90;99.90;;;;;;4948586;28;20458;-73
2023/05/11 07:43:31;;;;;;;21.55;17.52;;;14.90;99.90;;;;;;4935093;28;20043;-74
2023/05/11 07:45:57;;;;;;;21.55;16.33;;;14.90;99.90;;;;;;4963746;28;20779;-74
2023/05/11 07:48:23;;;;;;;21.70;16.65;;;14.90;99.90;;;;;;4954119;28;20069;-73
2023/05/11 07:50:49;;;;;;;21.05;16.70;;;14.90;99.90;;;;;;4966556;28;20057;-74
2023/05/11 07:53:15;;;;;;;20.92;17.75;;;14.90;99.90;;;;;;4940322;28;20138;-73
2023/05/11 07:55:41;;;;;;;25.83;18.08;;;15.00;99.90;;;;;;4963876;28;20039;-74
2023/05/11 07:58:06;;;;;;;25.13;18.05;;;15.00;99.90;;;;;;4957204;28;20047;-74
2023/05/11 08:00:33;;;;;;;20.38;17.10;;;14.90;99.90;;;;;;4940014;28;20059;-74
2023/05/11 08:02:58;;;;;;;22.00;17.77;;;15.00;99.90;;;;;;4943987;28;20073;-74
2023/05/11 08:05:24;;;;;;;24.27;19.17;;;15.00;99.90;;;;;;4965526;28;20047;-74
2023/05/11 08:07:50;;;;;;;22.75;18.10;;;15.00;99.90;;;;;;4949551;28;20150;-74
2023/05/11 08:10:16;;;;;;;22.48;18.17;;;15.00;99.90;;;;;;4929180;28;20109;-74
2023/05/11 08:12:41;;;;;;;24.08;18.63;;;14.90;99.90;;;;;;4958817;28;20054;-74
2023/05/11 08:15:08;;;;;;;22.25;18.08;;;14.90;99.90;;;;;;4906277;28;20043;-73
2023/05/11 08:17:35;;;;;;;20.02;17.48;;;15.00;99.90;;;;;;4927616;28;20468;-74
2023/05/11 08:20:02;;;;;;;21.95;18.25;;;15.00;99.90;;;;;;4958374;28;20633;-74
2023/05/11 08:22:28;;;;;;;20.95;17.88;;;15.00;99.90;;;;;;4945206;28;20060;-74
2023/05/11 08:24:54;;;;;;;21.15;17.85;;;15.10;99.90;;;;;;4970514;28;20047;-74
2023/05/11 08:27:20;;;;;;;20.88;16.65;;;15.10;99.90;;;;;;4957361;28;20490;-74
2023/05/11 08:29:45;;;;;;;20.48;17.45;;;15.10;99.90;;;;;;4973330;28;20042;-74
2023/05/11 08:32:11;;;;;;;18.48;15.13;;;15.10;99.90;;;;;;4976270;28;20060;-74
2023/05/11 08:34:37;;;;;;;20.67;14.70;;;15.10;99.90;;;;;;4999021;28;20038;-74
2023/05/11 08:37:03;;;;;;;17.23;15.38;;;15.10;99.90;;;;;;4974850;28;20347;-74
2023/05/11 08:39:32;;;;;;;17.65;15.57;;;15.10;99.90;;;;;;5007117;28;20482;-74
2023/05/11 08:41:58;;;;;;;23.33;16.33;;;15.20;99.90;;;;;;4977454;28;20121;-74
2023/05/11 08:44:27;;;;;;;17.98;14.88;;;15.20;99.90;;;;;;5020535;28;20037;-74
2023/05/11 08:46:53;;;;;;;17.17;14.27;;;15.20;99.90;;;;;;5010036;28;20058;-74
2023/05/11 08:49:19;;;;;;;18.15;14.65;;;15.30;99.90;;;;;;5008730;28;20382;-74
2023/05/11 08:51:45;;;;;;;18.48;14.20;;;15.30;99.90;;;;;;4995829;28;20048;-74
2023/05/11 08:54:11;;;;;;;19.88;16.77;;;15.30;99.90;;;;;;4985694;28;20377;-74
2023/05/11 08:56:39;;;;;;;21.95;17.65;;;15.40;99.90;;;;;;4985558;28;20084;-74
2023/05/11 08:59:05;;;;;;;17.27;15.20;;;15.40;99.90;;;;;;4995391;28;20421;-74
2023/05/11 09:01:31;;;;;;;16.92;14.57;;;15.40;99.90;;;;;;5013519;28;20117;-74
2023/05/11 09:03:57;;;;;;;19.65;16.35;;;15.40;99.90;;;;;;4994227;28;20343;-75
2023/05/11 09:06:23;;;;;;;21.65;18.23;;;15.50;99.90;;;;;;4997526;28;20056;-75
2023/05/11 09:08:49;;;;;;;21.13;16.83;;;15.50;99.90;;;;;;4968825;28;20065;-74
2023/05/11 09:11:15;;;;;;;19.92;17.48;;;15.60;99.90;;;;;;4969657;28;20046;-74
2023/05/11 09:13:41;;;;;;;20.98;17.30;;;15.60;99.90;;;;;;4980796;28;20104;-74
2023/05/11 09:16:07;;;;;;;17.63;15.52;;;15.60;99.90;;;;;;4975373;28;20042;-74
2023/05/11 09:18:33;;;;;;;21.20;17.02;;;15.60;99.90;;;;;;4963774;28;20042;-74
2023/05/11 09:21:00;;;;;;;19.08;16.85;;;15.70;99.90;;;;;;4997824;28;20049;-75
2023/05/11 09:23:27;;;;;;;18.48;16.48;;;15.70;99.90;;;;;;4988483;28;20057;-74
2023/05/11 09:25:53;;;;;;;17.80;15.90;;;15.70;99.90;;;;;;4971484;28;20358;-75
2023/05/11 09:28:24;;;;;;;18.23;15.60;;;15.60;99.90;;;;;;4965488;28;20053;-74
2023/05/11 09:30:50;;;;;;;20.45;15.77;;;15.60;99.90;;;;;;5000298;28;20041;-74
2023/05/11 09:33:25;;;;;;;20.70;16.42;;;15.60;99.90;;;;;;5006699;28;20038;-74
2023/05/11 09:35:51;;;;;;;18.58;16.50;;;15.70;99.90;;;;;;4985288;28;20077;-74
2023/05/11 09:38:19;;;;;;;20.52;16.63;;;15.70;99.90;;;;;;4985664;28;20466;-74
2023/05/11 09:40:55;;;;;;;18.48;15.60;;;15.70;99.90;;;;;;4966911;28;20457;-74
2023/05/11 09:43:28;;;;;;;17.40;15.13;;;15.70;99.90;;;;;;4988860;28;20046;-75
2023/05/11 09:46:03;;;;;;;19.23;15.65;;;15.70;99.90;;;;;;4981871;28;20049;-74
2023/05/11 09:48:34;;;;;;;15.20;13.52;;;15.80;99.90;;;;;;4997967;28;20054;-74
2023/05/11 09:51:04;;;;;;;15.15;13.05;;;15.80;99.90;;;;;;4991063;28;20038;-75
2023/05/11 09:53:44;;;;;;;16.63;13.50;;;15.70;99.90;;;;;;4983304;28;20374;-74
2023/05/11 09:56:15;;;;;;;15.50;12.90;;;15.80;99.90;;;;;;4994796;28;20066;-74
2023/05/11 09:58:59;;;;;;;15.85;13.05;;;15.80;99.90;;;;;;5001528;28;20464;-74
2023/05/11 10:01:36;;;;;;;15.68;13.27;;;15.80;99.90;;;;;;4970155;28;20092;-75
2023/05/11 10:04:03;;;;;;;15.05;12.95;;;15.90;99.90;;;;;;5010134;28;20143;-75
2023/05/11 10:06:49;;;;;;;17.20;13.88;;;15.90;99.90;;;;;;4993863;28;20053;-74
2023/05/11 10:09:16;;;;;;;16.48;13.38;;;16.00;99.90;;;;;;4996412;28;20042;-74
2023/05/11 10:11:45;;;;;;;18.73;13.20;;;16.00;99.90;;;;;;4971350;28;20116;-75
2023/05/11 10:14:12;;;;;;;15.80;12.60;;;16.10;99.90;;;;;;4982400;28;20042;-74
2023/05/11 10:16:39;;;;;;;15.85;13.07;;;16.10;99.90;;;;;;4975183;28;20125;-74
2023/05/11 10:19:05;;;;;;;17.15;13.10;;;16.20;99.90;;;;;;4984097;28;20053;-74
2023/05/11 10:21:42;;;;;;;15.25;11.85;;;16.20;99.90;;;;;;4965911;28;20042;-74
2023/05/11 10:24:09;;;;;;;16.40;12.60;;;16.20;99.90;;;;;;4968073;28;20056;-74
2023/05/11 10:26:35;;;;;;;18.15;13.27;;;16.20;99.90;;;;;;4973415;28;20521;-74
2023/05/11 10:29:01;;;;;;;20.10;15.63;;;16.30;99.90;;;;;;5006111;28;20038;-74
2023/05/11 10:31:28;;;;;;;18.08;13.13;;;16.40;99.90;;;;;;4973083;28;20049;-73
2023/05/11 10:33:56;;;;;;;16.15;14.45;;;16.40;99.90;;;;;;4999160;28;20057;-74
2023/05/11 10:36:23;;;;;;;19.25;14.90;;;16.50;99.90;;;;;;4985518;28;20046;-74
2023/05/11 10:38:50;;;;;;;16.05;14.27;;;16.40;99.90;;;;;;5011500;28;20184;-74
2023/05/11 10:41:26;;;;;;;19.85;15.75;;;16.50;99.90;;;;;;4979954;28;20370;-74
2023/05/11 10:44:29;;;;;;;17.17;15.25;;;16.50;99.90;;;;;;4999728;28;20046;-74
2023/05/11 10:47:23;;;;;;;17.02;13.95;;;16.60;99.90;;;;;;4983098;28;20439;-74
2023/05/11 10:50:27;;;;;;;18.98;14.98;;;16.60;99.90;;;;;;5010969;28;20056;-74
2023/05/11 10:53:33;;;;;;;18.75;15.15;;;16.70;99.90;;;;;;5006028;28;20045;-74
2023/05/11 10:56:21;;;;;;;17.33;14.52;;;16.70;99.90;;;;;;4995660;28;20141;-74
2023/05/11 10:59:12;;;;;;;17.25;14.90;;;16.70;99.90;;;;;;5017117;28;20048;-74
2023/05/11 11:01:44;;;;;;;17.08;13.40;;;16.80;99.90;;;;;;5010001;28;20148;-74
2023/05/11 11:04:15;;;;;;;20.10;16.15;;;16.70;99.90;;;;;;4951144;28;20060;-74
2023/05/11 11:06:43;;;;;;;20.08;16.85;;;16.70;99.90;;;;;;4987210;28;20049;-74
2023/05/11 11:09:14;;;;;;;;;;;16.70;99.90;;;;;;4973328;28;20559;-74
2023/05/11 11:11:49;;;;;;;16.42;14.00;;;16.60;99.90;;;;;;5000309;28;19943;-74
2023/05/11 11:14:16;;;;;;;19.58;16.25;;;16.60;99.90;;;;;;4967810;28;20038;-74
2023/05/11 11:17:17;;;;;;;19.52;17.00;;;16.60;99.90;;;;;;4992254;28;20782;-74
2023/05/11 11:19:43;;;;;;;26.08;17.20;;;16.60;99.90;;;;;;5012495;28;20476;-74
2023/05/11 11:22:34;;;;;;;20.10;17.08;;;16.60;99.90;;;;;;4993025;28;20054;-74
2023/05/11 11:25:00;;;;;;;17.95;16.02;;;16.50;99.90;;;;;;5005558;28;20046;-75
2023/05/11 11:27:44;;;;;;;21.02;18.75;;;16.50;99.90;;;;;;4981560;28;20061;-73
2023/05/11 11:30:17;;;;;;;29.25;19.05;;;16.50;99.90;;;;;;5010574;28;20037;-72
2023/05/11 11:32:43;;;;;;;23.38;20.75;;;16.50;99.90;;;;;;5008380;28;20411;-72
2023/05/11 11:35:40;;;;;;;22.60;20.20;;;16.40;99.90;;;;;;4970538;28;20038;-72
2023/05/11 11:38:17;;;;;;;23.67;21.13;;;16.40;99.90;;;;;;5004585;28;20041;-72
2023/05/11 11:40:52;;;;;;;27.40;21.58;;;16.40;99.90;;;;;;4992152;28;20050;-72
2023/05/11 11:43:23;;;;;;;26.45;22.85;;;16.30;99.90;;;;;;5001120;28;20049;-72
2023/05/11 11:45:59;;;;;;;28.40;24.00;;;16.00;99.90;;;;;;4968798;28;20143;-73
2023/05/11 11:48:34;;;;;;;28.98;23.83;;;15.80;99.90;;;;;;4999491;28;20050;-73
2023/05/11 11:51:05;;;;;;;23.65;20.92;;;16.00;99.90;;;;;;4985932;28;20037;-72
2023/05/11 11:53:37;;;;;;;24.98;21.40;;;16.00;99.90;;;;;;4987659;28;20115;-72
2023/05/11 11:56:04;;;;;;;24.10;21.50;;;16.10;99.90;;;;;;5013935;28;20049;-73
2023/05/11 11:58:43;;;;;;;24.95;20.92;;;16.20;99.90;;;;;;5012101;28;20088;-73
2023/05/11 12:01:16;;;;;;;27.67;23.95;;;16.20;99.90;;;;;;5022701;28;20512;-71
2023/05/11 12:03:43;;;;;;;25.52;21.60;;;16.20;99.90;;;;;;5005718;28;20041;-72
2023/05/11 12:06:09;;;;;;;26.48;23.42;;;16.20;99.90;;;;;;5002453;28;20050;-72
2023/05/11 12:08:36;;;;;;;32.13;27.35;;;16.20;99.90;;;;;;4993422;28;20702;-72
2023/05/11 12:11:03;;;;;;;32.20;25.30;;;16.10;99.90;;;;;;4992861;28;20463;-72
2023/05/11 12:13:29;;;;;;;33.90;28.85;;;16.10;99.90;;;;;;4998377;28;20052;-73
2023/05/11 12:16:21;;;;;;;33.35;29.38;;;16.10;99.90;;;;;;4991046;28;20042;-72
2023/05/11 12:18:57;;;;;;;33.40;27.70;;;16.10;99.90;;;;;;4993787;28;20053;-73
2023/05/11 12:21:26;;;;;;;35.28;28.05;;;16.10;99.90;;;;;;4973609;28;20045;-72
2023/05/11 12:23:54;;;;;;;42.22;33.50;;;16.00;99.90;;;;;;5011743;28;20078;-72
2023/05/11 12:26:23;;;;;;;48.70;35.33;;;15.60;99.90;;;;;;4996340;28;20052;-73
2023/05/11 12:29:06;;;;;;;43.50;34.30;;;15.40;99.90;;;;;;5022436;28;20038;-74
2023/05/11 12:31:38;;;;;;;44.45;34.50;;;15.40;99.90;;;;;;4976763;28;20125;-74
2023/05/11 12:34:04;;;;;;;39.70;32.72;;;15.50;99.90;;;;;;4985580;28;20089;-72
2023/05/11 12:36:31;;;;;;;38.03;29.23;;;15.50;99.90;;;;;;4983397;28;20046;-72
2023/05/11 12:38:58;;;;;;;41.22;33.78;;;15.70;99.90;;;;;;4992269;28;20134;-72